WHS weather

Whalsay Airport
Whalsay, Scotland, United Kingdom

Public forecast

Using degrees Celsius for public forecast. Weather courtesy of forecast.io.

METAR (pilot weather report)

Closest report is Scatsta Airport, 11.5 nm (21.3 km) WNW. Retrieved 2019/05/20 07:20 UTC (54 minutes ago):

EGPM 200720Z 13004KT 9999 FEW017 BKN025 11/07 Q1013 NOSIG

TAF (pilot weather forecast)

Forecast is more than 12 hours old.

Closest forecast is Scatsta Airport, 11.5 nm (21.3 km) WNW. Retrieved 2013/04/29 03:39 UTC (6 years ago):

TAF TAF EGPM 290337Z 2903/2915 22005KT 9999 SCT030 PROB30 TEMPO 2903/2906 7000 SHRAGS BECMG 2906/2909 32015KT PROB40 TEMPO 2906/2915 6000 SHRA SHGS BKN012CB